N172SB LCLK-LCLK
Flight info
| Callsign | N172SB |
|---|---|
| Flight time | N/A |
| Altitude | 3000 |
| Route | LK600 DCT LK601 DCT LKC04 DCT LK525 DCT LK522 DCT LK502 DCT LK505 DCT LK400 DCT LK600 DCT LK601 DCT LKC04 DCT LK525 DCT LK522 DCT LK502 DCT LK505 DCT LK400 DCT LK600 DCT LK601 DCT LKC04 DCT LK525 DCT LK522 DCT LK502 DCT LK505 DCT LK400 |
| Aircraft | C172/L-SFG/C |
Departure
| Time | 2026-04-28 15:21 |
|---|---|
| Airport | Larnaca International Airport (LCLK) |
Arrival
| Time | N/A |
|---|---|
| Airport | Larnaca International Airport (LCLK) |
| Time | Latitude | Longitude | Altitude | Speed | Heading |
|---|---|---|---|---|---|
| 2026-04-28 15:20 | 34.90083 | 33.74245 | 2808 ft | 104 kts | 1° |
| 2026-04-28 15:21 | 34.90620 | 33.73831 | 2795 ft | 96 kts | 293° |
| 2026-04-28 15:21 | 34.90902 | 33.73107 | 2796 ft | 92 kts | 295° |
| 2026-04-28 15:21 | 34.91166 | 33.72424 | 2736 ft | 88 kts | 295° |
| 2026-04-28 15:21 | 34.91448 | 33.71706 | 2512 ft | 97 kts | 295° |
| 2026-04-28 15:22 | 34.91746 | 33.70946 | 2298 ft | 102 kts | 295° |
| 2026-04-28 15:22 | 34.92054 | 33.70153 | 2062 ft | 106 kts | 285° |
| 2026-04-28 15:22 | 34.91871 | 33.69286 | 1817 ft | 112 kts | 238° |
| 2026-04-28 15:22 | 34.91238 | 33.68694 | 1569 ft | 117 kts | 213° |
| 2026-04-28 15:23 | 34.90545 | 33.68176 | 1347 ft | 118 kts | 212° |
| 2026-04-28 15:23 | 34.89845 | 33.67649 | 1101 ft | 118 kts | 213° |
| 2026-04-28 15:23 | 34.89205 | 33.67053 | 894 ft | 114 kts | 231° |
| 2026-04-28 15:23 | 34.89011 | 33.66146 | 621 ft | 119 kts | 265° |
| 2026-04-28 15:24 | 34.89116 | 33.65189 | 484 ft | 100 kts | 258° |
| 2026-04-28 15:24 | 34.88903 | 33.64417 | 244 ft | 90 kts | 239° |
| 2026-04-28 15:24 | 34.88562 | 33.63858 | 144 ft | 75 kts | 227° |
| 2026-04-28 15:24 | 34.88217 | 33.63417 | 34 ft | 73 kts | 225° |
| 2026-04-28 15:25 | 34.87872 | 33.62990 | 15 ft | 64 kts | 226° |
| 2026-04-28 15:25 | 34.87521 | 33.62556 | 30 ft | 82 kts | 226° |
| 2026-04-28 15:25 | 34.87077 | 33.62058 | 134 ft | 88 kts | 220° |
| 2026-04-28 15:25 | 34.86590 | 33.61606 | 287 ft | 88 kts | 217° |
| 2026-04-28 15:26 | 34.86093 | 33.61122 | 352 ft | 97 kts | 219° |